createdAt,value
2023-03-20T00:00:34.019Z,123.77
2023-03-20T00:03:03.719Z,196.03
2023-03-20T00:05:33.395Z,103.23
2023-03-20T00:08:01.900Z,76.83
2023-03-20T00:10:35.245Z,254.27
2023-03-20T00:13:03.720Z,28.90
2023-03-20T00:15:34.469Z,103.90
2023-03-20T00:18:03.852Z,26.80
2023-03-20T00:20:31.854Z,164.60
2023-03-20T00:22:59.784Z,53.53
2023-03-20T00:25:28.427Z,19.27
2023-03-20T00:27:56.780Z,36.07
2023-03-20T00:30:29.491Z,94.93
2023-03-20T00:32:59.258Z,25.87
2023-03-20T00:35:31.201Z,65.47
2023-03-20T00:37:59.695Z,64.70
2023-03-20T00:40:31.338Z,22.90
2023-03-20T00:43:01.995Z,353.83
2023-03-20T00:45:31.249Z,189.03
2023-03-20T00:47:59.784Z,290.90
2023-03-20T00:50:31.707Z,29.03
2023-03-20T00:53:00.276Z,71.03
2023-03-20T00:55:30.674Z,222.50
2023-03-20T00:58:01.697Z,59.33
2023-03-20T01:00:39.384Z,79.83
2023-03-20T01:03:14.816Z,105.27
2023-03-20T01:05:44.514Z,84.70
2023-03-20T01:08:17.734Z,11.13
2023-03-20T01:10:47.476Z,143.43
2023-03-20T01:13:21.375Z,114.87
2023-03-20T01:15:51.536Z,76.47
2023-03-20T01:18:21.436Z,131.13
2023-03-20T01:20:52.906Z,191.70
2023-03-20T01:23:23.023Z,111.10
2023-03-20T01:25:51.387Z,273.53
2023-03-20T01:28:22.744Z,36.80
2023-03-20T01:30:51.561Z,170.00
2023-03-20T01:33:21.242Z,219.93
2023-03-20T01:35:51.765Z,33.80
2023-03-20T01:38:22.052Z,18.20
2023-03-20T01:40:54.216Z,57.40
2023-03-20T01:43:23.765Z,10.13
2023-03-20T01:46:00.388Z,61.83
2023-03-20T01:48:37.796Z,59.53
2023-03-20T01:51:07.667Z,34.27
2023-03-20T01:53:35.720Z,51.57
2023-03-20T01:56:03.795Z,19.33
2023-03-20T01:58:37.372Z,69.43
2023-03-20T02:01:06.817Z,169.43
2023-03-20T02:03:35.168Z,92.50
2023-03-20T02:06:03.108Z,258.43
2023-03-20T02:08:37.977Z,83.90
2023-03-20T02:11:07.098Z,95.17
2023-03-20T02:13:36.360Z,95.37
2023-03-20T02:16:08.123Z,262.27
2023-03-20T02:18:36.693Z,72.90
2023-03-20T02:21:41.534Z,129.70
2023-03-20T02:24:54.148Z,152.67
2023-03-20T02:27:30.253Z,86.57
2023-03-20T02:30:43.727Z,82.63
2023-03-20T02:33:51.999Z,45.23
2023-03-20T02:36:37.359Z,88.27
2023-03-20T02:39:35.748Z,140.37
2023-03-20T02:42:12.993Z,23.77
2023-03-20T02:44:47.180Z,120.53
2023-03-20T02:47:21.320Z,145.87
2023-03-20T02:49:58.732Z,298.87
2023-03-20T02:52:34.933Z,304.80
2023-03-20T02:55:17.877Z,122.40
2023-03-20T02:57:58.374Z,38.30
2023-03-20T03:00:30.849Z,34.43
2023-03-20T03:03:06.494Z,39.53
2023-03-20T03:05:39.058Z,85.17
2023-03-20T03:08:10.858Z,146.63
2023-03-20T03:10:44.366Z,113.10
2023-03-20T03:13:16.424Z,180.83
2023-03-20T03:15:47.397Z,266.17
2023-03-20T03:18:21.073Z,56.10
2023-03-20T03:20:53.386Z,84.40
2023-03-20T03:23:27.511Z,22.60
2023-03-20T03:25:58.977Z,56.30
2023-03-20T03:28:37.043Z,161.93
2023-03-20T03:31:07.563Z,44.33
2023-03-20T03:33:38.816Z,75.57
2023-03-20T03:36:14.100Z,122.77
2023-03-20T03:38:50.230Z,170.17
2023-03-20T03:41:27.892Z,26.63
2023-03-20T03:44:06.184Z,95.23
2023-03-20T03:46:44.430Z,133.87
2023-03-20T03:49:17.912Z,46.80
2023-03-20T03:51:49.718Z,26.47
2023-03-20T03:54:22.037Z,132.63
2023-03-20T03:56:52.274Z,191.87
2023-03-20T03:59:25.988Z,96.03
2023-03-20T04:01:55.451Z,22.33
2023-03-20T04:04:25.358Z,152.60
2023-03-20T04:06:53.430Z,83.97
2023-03-20T04:09:21.472Z,94.73
2023-03-20T04:11:53.677Z,102.13
2023-03-20T04:14:21.805Z,80.50
2023-03-20T04:16:49.792Z,105.73
2023-03-20T04:19:17.956Z,50.17
2023-03-20T04:21:46.653Z,81.43
2023-03-20T04:24:15.382Z,24.00
2023-03-20T04:26:43.461Z,18.17
2023-03-20T04:29:13.386Z,158.10
2023-03-20T04:31:41.403Z,13.83
2023-03-20T04:34:09.429Z,32.13
2023-03-20T04:36:37.382Z,171.00
2023-03-20T04:39:05.491Z,171.27
2023-03-20T04:41:33.419Z,71.33
2023-03-20T04:44:01.377Z,21.87
2023-03-20T04:46:30.665Z,51.90
2023-03-20T04:48:58.665Z,175.47
2023-03-20T04:51:26.604Z,733.40
2023-03-20T04:53:54.614Z,93.10
2023-03-20T04:56:22.556Z,106.80
2023-03-20T04:58:50.625Z,25.07
2023-03-20T05:01:18.555Z,212.37
2023-03-20T05:03:47.953Z,50.23
2023-03-20T05:06:15.946Z,194.77
2023-03-20T05:08:43.898Z,223.57
2023-03-20T05:11:11.840Z,60.47
2023-03-20T05:13:39.789Z,58.37
2023-03-20T05:16:09.460Z,121.60
2023-03-20T05:18:37.426Z,99.83
2023-03-20T05:21:07.932Z,77.80
2023-03-20T05:23:36.126Z,70.57
2023-03-20T05:26:04.159Z,112.97
2023-03-20T05:28:32.435Z,100.30
2023-03-20T05:31:00.486Z,266.73
2023-03-20T05:33:28.566Z,29.13
2023-03-20T05:35:56.610Z,117.10
2023-03-20T05:38:26.772Z,138.10
2023-03-20T05:40:58.739Z,92.87
2023-03-20T05:43:27.028Z,78.77
2023-03-20T05:45:55.822Z,53.10
2023-03-20T05:48:24.090Z,92.07
2023-03-20T05:50:52.069Z,112.83
2023-03-20T05:53:20.374Z,68.40
2023-03-20T05:55:49.717Z,113.67
2023-03-20T05:58:17.682Z,70.97
2023-03-20T06:00:45.673Z,96.23
2023-03-20T06:03:13.704Z,72.70
2023-03-20T06:05:42.215Z,121.83
2023-03-20T06:08:10.301Z,72.30
2023-03-20T06:10:38.246Z,142.50
2023-03-20T06:13:07.552Z,82.03
2023-03-20T06:15:36.057Z,236.93
2023-03-20T06:18:04.236Z,114.07
2023-03-20T06:20:32.219Z,121.03
2023-03-20T06:23:00.396Z,126.03
2023-03-20T06:25:28.597Z,156.60
2023-03-20T06:27:57.749Z,137.43
2023-03-20T06:30:27.089Z,336.37
2023-03-20T06:32:55.082Z,234.83
2023-03-20T06:35:23.127Z,194.57
2023-03-20T06:37:51.229Z,67.63
2023-03-20T06:40:19.271Z,92.13
2023-03-20T06:42:47.244Z,145.03
2023-03-20T06:45:15.861Z,218.30
2023-03-20T06:47:45.428Z,112.60
2023-03-20T06:50:13.610Z,85.63
2023-03-20T06:52:41.790Z,36.20
2023-03-20T06:55:10.496Z,69.90
2023-03-20T06:57:38.439Z,244.60
2023-03-20T07:00:07.909Z,48.77
2023-03-20T07:02:36.109Z,50.20
2023-03-20T07:05:05.978Z,57.63
2023-03-20T07:07:34.301Z,228.10
2023-03-20T07:10:02.666Z,255.00
2023-03-20T07:12:30.600Z,191.90
2023-03-20T07:14:58.573Z,345.23
2023-03-20T07:17:26.656Z,287.67
2023-03-20T07:19:54.862Z,196.27
2023-03-20T07:22:26.117Z,169.67
2023-03-20T07:24:54.446Z,239.97
2023-03-20T07:27:22.409Z,104.97
2023-03-20T07:29:50.710Z,389.83
2023-03-20T07:32:18.657Z,144.43
2023-03-20T07:34:47.642Z,249.77
2023-03-20T07:37:15.885Z,257.57
2023-03-20T07:39:45.270Z,259.40
2023-03-20T07:42:14.595Z,223.33
2023-03-20T07:44:42.574Z,234.93
2023-03-20T07:47:10.601Z,174.87
2023-03-20T07:49:38.582Z,264.93
2023-03-20T07:52:06.730Z,94.87
2023-03-20T07:54:34.720Z,448.93
2023-03-20T07:57:05.418Z,121.40
2023-03-20T07:59:33.629Z,266.97
2023-03-20T08:02:01.576Z,479.93
2023-03-20T08:04:30.230Z,698.17
2023-03-20T08:06:58.280Z,129.57
2023-03-20T08:09:26.310Z,402.00
2023-03-20T08:11:54.290Z,336.33
2023-03-20T08:14:23.918Z,400.63
2023-03-20T08:17:06.273Z,415.57
2023-03-20T08:19:40.115Z,257.47
2023-03-20T08:22:08.261Z,353.80
2023-03-20T08:24:36.709Z,403.43
2023-03-20T08:27:05.149Z,253.47
2023-03-20T08:29:34.594Z,151.27
2023-03-20T08:32:02.806Z,578.17
2023-03-20T08:34:32.129Z,444.17
2023-03-20T08:37:00.211Z,317.87
2023-03-20T08:39:28.154Z,386.77
2023-03-20T08:41:56.157Z,474.73
2023-03-20T08:44:24.184Z,405.23
2023-03-20T08:46:55.066Z,407.17
2023-03-20T08:49:23.017Z,757.60
2023-03-20T08:51:50.958Z,451.27
2023-03-20T08:54:19.105Z,440.07
2023-03-20T08:56:47.141Z,387.90
2023-03-20T08:59:15.087Z,506.03
2023-03-20T09:01:49.800Z,549.50
2023-03-20T09:04:19.909Z,660.20
2023-03-20T09:06:47.903Z,752.97
2023-03-20T09:09:20.913Z,936.50
2023-03-20T09:11:48.996Z,767.03
2023-03-20T09:14:17.087Z,803.00
2023-03-20T09:16:45.100Z,699.27
2023-03-20T09:19:13.104Z,760.70
2023-03-20T09:21:42.600Z,687.00
2023-03-20T09:24:11.487Z,669.50
2023-03-20T09:26:39.842Z,501.53
2023-03-20T09:29:07.949Z,752.57
2023-03-20T09:31:36.142Z,920.80
2023-03-20T09:34:04.432Z,830.47
2023-03-20T09:36:32.414Z,602.83
2023-03-20T09:39:02.076Z,633.53
2023-03-20T09:41:48.946Z,625.40
2023-03-20T09:44:41.779Z,771.17
2023-03-20T09:47:21.311Z,588.93
2023-03-20T09:50:00.205Z,600.40
2023-03-20T09:52:31.383Z,693.20
2023-03-20T09:55:03.945Z,851.43
2023-03-20T09:57:39.069Z,637.07
2023-03-20T10:00:13.631Z,707.07
2023-03-20T10:02:54.281Z,717.50
2023-03-20T10:05:27.134Z,588.00
2023-03-20T10:07:57.775Z,949.70
2023-03-20T10:10:35.503Z,751.33
2023-03-20T10:13:17.063Z,937.27
2023-03-20T10:15:52.162Z,988.80
2023-03-20T10:18:25.866Z,792.20
2023-03-20T10:20:59.031Z,849.23
2023-03-20T10:23:34.621Z,888.73
2023-03-20T10:26:07.740Z,787.80
2023-03-20T10:28:41.199Z,924.77
2023-03-20T10:31:24.016Z,855.83
2023-03-20T10:34:03.675Z,999.90
2023-03-20T10:36:52.142Z,820.07
2023-03-20T10:39:36.097Z,787.23
2023-03-20T10:42:14.603Z,795.77
2023-03-20T10:44:50.310Z,684.20
2023-03-20T10:47:21.854Z,762.33
2023-03-20T10:49:54.798Z,951.73
2023-03-20T10:52:27.452Z,742.50
2023-03-20T10:54:58.936Z,872.80
2023-03-20T10:57:32.769Z,884.60
2023-03-20T11:00:01.205Z,764.80
2023-03-20T11:02:31.529Z,777.70
2023-03-20T11:05:01.586Z,718.83
2023-03-20T11:07:34.135Z,690.27
2023-03-20T11:10:19.763Z,786.33
2023-03-20T11:12:52.379Z,611.97
2023-03-20T11:15:24.301Z,773.37
2023-03-20T11:17:54.144Z,647.87
2023-03-20T11:20:22.098Z,858.83
2023-03-20T11:22:50.978Z,827.97
2023-03-20T11:25:29.482Z,915.97
2023-03-20T11:27:59.618Z,882.60
2023-03-20T11:30:28.202Z,959.97
2023-03-20T11:33:02.103Z,845.83
2023-03-20T11:35:32.676Z,811.05
2023-03-20T11:38:14.248Z,791.83
2023-03-20T11:40:42.723Z,999.90
2023-03-20T11:43:14.639Z,927.65
2023-03-20T11:45:45.078Z,999.90
2023-03-20T11:48:20.998Z,999.90
2023-03-20T11:50:53.288Z,900.92
2023-03-20T11:53:26.092Z,915.55
2023-03-20T11:56:07.669Z,758.17
2023-03-20T11:58:38.983Z,999.90
2023-03-20T12:01:12.996Z,999.90
2023-03-20T12:03:47.659Z,991.78
2023-03-20T12:06:18.727Z,943.45
2023-03-20T12:08:55.037Z,919.97
2023-03-20T12:11:37.323Z,883.75
2023-03-20T12:14:14.620Z,997.42
2023-03-20T12:16:43.481Z,999.90
2023-03-20T12:19:18.104Z,999.90
2023-03-20T12:21:50.153Z,867.65
2023-03-20T12:24:28.881Z,927.65
2023-03-20T12:27:01.990Z,950.83
2023-03-20T12:29:38.405Z,989.47
2023-03-20T12:32:12.158Z,999.90
2023-03-20T12:34:46.996Z,999.90
2023-03-20T12:37:18.463Z,999.90
2023-03-20T12:39:52.130Z,963.72
2023-03-20T12:42:36.522Z,942.00
2023-03-20T12:45:12.397Z,999.90
2023-03-20T12:47:55.005Z,999.90
2023-03-20T12:50:32.165Z,999.90
2023-03-20T12:53:18.082Z,985.83
2023-03-20T12:56:00.607Z,999.90
2023-03-20T12:58:38.619Z,999.90
2023-03-20T13:01:12.728Z,999.90
2023-03-20T13:03:54.960Z,999.90
2023-03-20T13:06:36.636Z,999.90
2023-03-20T13:09:44.729Z,999.90
2023-03-20T13:12:24.034Z,999.90
2023-03-20T13:15:00.814Z,999.90
2023-03-20T13:17:37.959Z,999.90
2023-03-20T13:20:22.793Z,999.90
2023-03-20T13:23:00.996Z,999.90
2023-03-20T13:25:53.776Z,995.65
2023-03-20T13:28:30.878Z,999.90
2023-03-20T13:31:07.000Z,999.90
2023-03-20T13:33:48.571Z,999.90
2023-03-20T13:36:26.316Z,999.90
2023-03-20T13:38:59.220Z,999.90
2023-03-20T13:41:28.209Z,999.90
2023-03-20T13:44:01.234Z,984.38
2023-03-20T13:46:36.348Z,999.90
2023-03-20T13:49:09.759Z,999.90
2023-03-20T13:51:43.572Z,999.90
2023-03-20T13:54:24.762Z,999.90
2023-03-20T13:56:58.958Z,999.90
2023-03-20T13:59:47.342Z,999.90
2023-03-20T14:02:28.954Z,999.90
2023-03-20T14:05:05.729Z,999.90
2023-03-20T14:07:36.078Z,999.90
2023-03-20T14:10:39.273Z,999.90
2023-03-20T14:13:13.960Z,999.90
2023-03-20T14:15:50.362Z,999.90
2023-03-20T14:18:22.473Z,999.90
2023-03-20T14:20:58.753Z,999.90
2023-03-20T14:23:47.277Z,999.90
2023-03-20T14:26:23.562Z,999.90
2023-03-20T14:28:58.909Z,999.90
2023-03-20T14:31:32.292Z,999.90
2023-03-20T14:34:09.538Z,999.90
2023-03-20T14:36:56.964Z,999.90
2023-03-20T14:39:41.072Z,999.90
2023-03-20T14:42:34.993Z,926.43
2023-03-20T14:45:31.818Z,999.90
2023-03-20T14:48:05.906Z,972.63
2023-03-20T14:50:39.618Z,999.90
2023-03-20T14:53:17.439Z,999.90
2023-03-20T14:55:53.010Z,999.90
2023-03-20T14:58:50.783Z,914.63
2023-03-20T15:01:29.782Z,827.23
2023-03-20T15:04:01.069Z,889.57
2023-03-20T15:06:30.601Z,999.90
2023-03-20T15:09:02.691Z,976.40
2023-03-20T15:11:31.648Z,999.90
2023-03-20T15:14:02.324Z,881.10
2023-03-20T15:16:31.904Z,703.93
2023-03-20T15:19:00.521Z,999.90
2023-03-20T15:21:36.279Z,845.70
2023-03-20T15:24:06.409Z,999.90
2023-03-20T15:26:36.707Z,697.57
2023-03-20T15:29:07.965Z,782.80
2023-03-20T15:31:38.490Z,581.57
2023-03-20T15:34:12.219Z,516.93
2023-03-20T15:36:42.021Z,685.23
2023-03-20T15:39:16.219Z,611.63
2023-03-20T15:41:48.252Z,753.77
2023-03-20T15:44:22.480Z,764.27
2023-03-20T15:46:56.916Z,454.60
2023-03-20T15:49:25.558Z,588.90
2023-03-20T15:51:55.541Z,498.00
2023-03-20T15:54:25.277Z,497.60
2023-03-20T15:56:55.318Z,428.83
2023-03-20T15:59:26.935Z,433.63
2023-03-20T16:01:59.027Z,350.47
2023-03-20T16:04:28.316Z,398.03
2023-03-20T16:06:58.290Z,489.63
2023-03-20T16:09:28.727Z,734.13
2023-03-20T16:11:59.775Z,482.60
2023-03-20T16:14:30.536Z,402.30
2023-03-20T16:17:01.163Z,245.43
2023-03-20T16:19:30.778Z,268.20
2023-03-20T16:22:02.166Z,243.37
2023-03-20T16:24:36.027Z,372.83
2023-03-20T16:27:08.580Z,201.63
2023-03-20T16:29:38.271Z,357.50
2023-03-20T16:32:08.668Z,334.30
2023-03-20T16:34:39.620Z,301.00
2023-03-20T16:37:09.510Z,412.50
2023-03-20T16:39:38.941Z,142.67
2023-03-20T16:42:24.340Z,208.40
2023-03-20T16:44:56.000Z,373.20
2023-03-20T16:47:25.549Z,184.90
2023-03-20T16:50:11.752Z,362.67
2023-03-20T16:52:41.534Z,130.50
2023-03-20T16:55:18.088Z,241.87
2023-03-20T16:57:48.572Z,223.10
2023-03-20T17:00:30.931Z,220.47
2023-03-20T17:03:10.951Z,77.17
2023-03-20T17:05:57.879Z,155.10
2023-03-20T17:08:35.152Z,31.40
2023-03-20T17:11:11.553Z,360.53
2023-03-20T17:13:39.710Z,77.80
2023-03-20T17:16:08.912Z,203.07
2023-03-20T17:18:38.064Z,387.13
2023-03-20T17:21:06.477Z,210.83
2023-03-20T17:23:35.063Z,266.60
2023-03-20T17:26:03.176Z,444.17
2023-03-20T17:28:37.059Z,96.63
2023-03-20T17:31:06.405Z,184.63
2023-03-20T17:33:36.341Z,138.50
2023-03-20T17:36:04.610Z,45.03
2023-03-20T17:38:32.660Z,223.07
2023-03-20T17:41:00.699Z,205.80
2023-03-20T17:43:28.732Z,194.13
2023-03-20T17:45:59.409Z,122.63
2023-03-20T17:48:27.509Z,135.17
2023-03-20T17:50:55.802Z,331.73
2023-03-20T17:53:25.548Z,390.67
2023-03-20T17:55:54.179Z,257.60
2023-03-20T17:58:23.805Z,113.40
2023-03-20T18:00:52.704Z,150.10
2023-03-20T18:03:22.752Z,169.53
2023-03-20T18:05:52.282Z,328.27
2023-03-20T18:08:23.175Z,192.60
2023-03-20T18:10:52.902Z,95.73
2023-03-20T18:13:21.290Z,333.63
2023-03-20T18:15:50.216Z,237.87
2023-03-20T18:18:19.031Z,327.00
2023-03-20T18:20:48.790Z,251.73
2023-03-20T18:23:17.385Z,335.83
2023-03-20T18:25:45.504Z,208.73
2023-03-20T18:28:20.414Z,239.60
2023-03-20T18:30:49.002Z,75.10
2023-03-20T18:33:17.638Z,208.07
2023-03-20T18:35:45.896Z,79.53
2023-03-20T18:38:15.348Z,183.90
2023-03-20T18:40:47.219Z,348.07
2023-03-20T18:43:15.476Z,206.70
2023-03-20T18:45:43.484Z,287.83
2023-03-20T18:48:13.693Z,307.63
2023-03-20T18:50:43.220Z,189.63
2023-03-20T18:53:12.047Z,146.27
2023-03-20T18:55:41.730Z,201.40
2023-03-20T18:58:21.461Z,331.33
2023-03-20T19:00:50.145Z,216.30
2023-03-20T19:03:18.215Z,184.73
2023-03-20T19:05:46.256Z,210.03
2023-03-20T19:08:16.974Z,116.27
2023-03-20T19:10:47.007Z,159.93
2023-03-20T19:13:16.439Z,75.47
2023-03-20T19:15:45.550Z,107.93
2023-03-20T19:18:17.217Z,43.03
2023-03-20T19:20:48.016Z,234.83
2023-03-20T19:23:17.652Z,151.07
2023-03-20T19:25:48.915Z,191.33
2023-03-20T19:28:34.584Z,131.23
2023-03-20T19:31:06.534Z,292.13
2023-03-20T19:33:34.671Z,202.43
2023-03-20T19:36:04.352Z,141.53
2023-03-20T19:38:34.143Z,238.57
2023-03-20T19:41:03.858Z,194.37
2023-03-20T19:43:32.424Z,132.50
2023-03-20T19:46:00.997Z,189.73
2023-03-20T19:48:46.154Z,258.13
2023-03-20T19:51:20.224Z,96.00
2023-03-20T19:53:48.786Z,30.73
2023-03-20T19:56:19.456Z,221.60
2023-03-20T19:58:47.762Z,162.57
2023-03-20T20:01:18.950Z,197.43
2023-03-20T20:03:48.168Z,169.17
2023-03-20T20:06:16.210Z,56.37
2023-03-20T20:08:48.728Z,128.97
2023-03-20T20:11:19.140Z,79.97
2023-03-20T20:14:05.311Z,168.63
2023-03-20T20:16:35.618Z,47.67
2023-03-20T20:19:04.008Z,83.67
2023-03-20T20:22:17.191Z,85.40
2023-03-20T20:24:20.722Z,20.30
2023-03-20T20:26:55.242Z,59.57
2023-03-20T20:29:28.199Z,79.40
2023-03-20T20:31:56.298Z,163.73
2023-03-20T20:35:22.640Z,165.27
2023-03-20T20:40:00.962Z,218.47
2023-03-20T20:42:30.421Z,225.97
2023-03-20T20:44:58.554Z,151.43
2023-03-20T20:47:26.589Z,268.50
2023-03-20T20:49:54.676Z,143.97
2023-03-20T20:52:22.768Z,133.80
2023-03-20T20:54:50.791Z,205.10
2023-03-20T20:57:18.790Z,99.67
2023-03-20T20:59:48.203Z,178.97
2023-03-20T21:02:17.591Z,116.17
2023-03-20T21:04:45.771Z,89.33
2023-03-20T21:07:14.723Z,239.80
2023-03-20T21:09:42.998Z,95.97
2023-03-20T21:12:22.675Z,223.80
2023-03-20T21:15:01.061Z,89.07
2023-03-20T21:17:29.867Z,216.43
2023-03-20T21:19:58.028Z,153.73
2023-03-20T21:22:26.960Z,71.53
2023-03-20T21:25:10.954Z,79.47
2023-03-20T21:27:41.755Z,73.20
2023-03-20T21:30:12.528Z,101.23
2023-03-20T21:32:40.801Z,97.57
2023-03-20T21:35:09.543Z,31.27
2023-03-20T21:40:26.421Z,163.93
2023-03-20T21:42:54.501Z,77.97
2023-03-20T21:46:15.337Z,151.93
2023-03-20T21:57:18.053Z,119.70
2023-03-20T22:00:01.223Z,108.33
2023-03-20T22:02:23.767Z,108.53
2023-03-20T22:17:00.589Z,84.73
2023-03-20T22:22:37.416Z,46.03
2023-03-20T22:25:32.016Z,161.87
2023-03-20T22:28:00.877Z,181.57
2023-03-20T22:39:27.098Z,87.13
2023-03-20T22:44:58.640Z,27.77
2023-03-20T22:47:06.771Z,63.10
2023-03-20T22:49:34.932Z,120.67
2023-03-20T22:52:20.040Z,101.20
2023-03-20T22:54:52.389Z,355.77
2023-03-20T22:57:20.670Z,236.07
2023-03-20T22:59:48.768Z,132.70
2023-03-20T23:02:16.791Z,89.03
2023-03-20T23:04:44.875Z,115.70
2023-03-20T23:07:14.307Z,104.90
2023-03-20T23:09:42.320Z,77.47
2023-03-20T23:12:11.068Z,53.57
2023-03-20T23:14:45.813Z,91.60
2023-03-20T23:17:14.397Z,109.53
2023-03-20T23:19:48.967Z,226.47
2023-03-20T23:22:21.631Z,377.03
2023-03-20T23:24:50.232Z,190.53
2023-03-20T23:27:19.751Z,152.77
2023-03-20T23:29:47.767Z,109.10
2023-03-20T23:32:16.082Z,268.13
2023-03-20T23:34:44.120Z,95.70
2023-03-20T23:37:12.111Z,100.33
2023-03-20T23:39:41.925Z,107.27
2023-03-20T23:42:23.962Z,140.97
2023-03-20T23:45:02.203Z,48.30
2023-03-20T23:47:44.409Z,42.37
2023-03-20T23:50:20.656Z,282.43
2023-03-20T23:53:03.596Z,53.10
2023-03-20T23:55:39.305Z,204.83
2023-03-20T23:58:07.558Z,82.00
